Cruise inventory

RV Jan Mayen JM7

Cruise plan

Cruise Info. 
Ship name (ship code)RV Jan Mayen (58JM)
Cruise identifierJM7
Cruise period1994-09-05 — 1994-09-10
StatusCompleted
PurposeResearch
ObjectivesICES Reference Number 1994 58 096
Chief scientistKurt Tande (University of Tromsø Norwegian College of Fishery Science)
ProjectOMEX
Ocean/sea areas 
GeneralNorwegian Sea
SpecificNorwegian Sea
Data held at BODC 
Series/Profiles 
23  Bottle station
Quality control flags
Chlorophyll pigment concentrations in water bodies
Silicate concentration parameters in the water column
Vertical spatial coordinates
Nitrate concentration parameters in the water column
Phaeopigment concentrations in the water column
Reference numbers
Phosphate concentration parameters in the water column
Quality control flags
Chlorophyll pigment concentrations in water bodies
Silicate concentration parameters in the water column
Vertical spatial coordinates
Nitrate concentration parameters in the water column
Phaeopigment concentrations in the water column
Reference numbers
Phosphate concentration parameters in the water column

BODC idDate/TimeLocationDoc.
16370721994-09-05 23:05 70° 19' 59" N  18° 56' 59" E  View metadata report for BODC series reference number 1637072
16370841994-09-06 15:11 70° 24' 54" N  17° 10' 0" E  View metadata report for BODC series reference number 1637084
16370961994-09-08 08:05 69° 57' 0" N  16° 45' 0" E  View metadata report for BODC series reference number 1637096
16371031994-09-08 14:05 69° 49' 59" N  17° 46' 0" E  View metadata report for BODC series reference number 1637103
16371151994-09-08 17:09 69° 46' 0" N  17° 40' 0" E  View metadata report for BODC series reference number 1637115
16371271994-09-08 21:07 69° 49' 59" N  17° 4' 0" E  View metadata report for BODC series reference number 1637127
16371391994-09-09 02:08 69° 52' 30" N  16° 36' 0" E  View metadata report for BODC series reference number 1637139
16371401994-09-09 06:37 69° 49' 59" N  16° 0' 0" E  View metadata report for BODC series reference number 1637140
16371521994-09-09 21:05 69° 44' 23" N  16° 46' 59" E  View metadata report for BODC series reference number 1637152
16371641994-09-10 01:04 69° 40' 0" N  17° 31' 0" E  View metadata report for BODC series reference number 1637164
12538421994-09-05 23:05 70° 19' 59" N  18° 56' 59" E  View metadata report for BODC series reference number 1253842
12538541994-09-06 04:04 70° 22' 0" N  18° 11' 59" E  View metadata report for BODC series reference number 1253854
12538661994-09-06 08:06 70° 24' 29" N  17° 18' 0" E  View metadata report for BODC series reference number 1253866
12538781994-09-06 12:07 70° 24' 42" N  17° 13' 0" E  View metadata report for BODC series reference number 1253878
12538911994-09-06 15:11 70° 24' 54" N  17° 10' 0" E  View metadata report for BODC series reference number 1253891
12539091994-09-08 08:05 69° 57' 0" N  16° 45' 0" E  View metadata report for BODC series reference number 1253909
12539101994-09-08 14:05 69° 49' 59" N  17° 46' 0" E  View metadata report for BODC series reference number 1253910
12539221994-09-08 17:09 69° 46' 0" N  17° 40' 0" E  View metadata report for BODC series reference number 1253922
12539341994-09-08 21:07 69° 49' 59" N  17° 4' 0" E  View metadata report for BODC series reference number 1253934
12539461994-09-09 02:08 69° 52' 30" N  16° 36' 0" E  View metadata report for BODC series reference number 1253946
12539581994-09-09 06:37 69° 49' 59" N  16° 0' 0" E  View metadata report for BODC series reference number 1253958
12539711994-09-09 21:05 69° 44' 23" N  16° 46' 59" E  View metadata report for BODC series reference number 1253971
12539831994-09-10 01:04 69° 40' 0" N  17° 31' 0" E  View metadata report for BODC series reference number 1253983
69  CTD/STD cast
Density of the water column
Chlorophyll pigment concentrations in water bodies
Vertical spatial coordinates
Salinity of the water column
Temperature of the water column
Density of the water column
Chlorophyll pigment concentrations in water bodies
Vertical spatial coordinates
Salinity of the water column
Temperature of the water column

BODC idDate/TimeLocationDoc.
8917661994-09-09 18:00 69° 47' 59" N  16° 13' 59" E  View metadata report for BODC series reference number 891766
8917781994-09-09 19:00 69° 46' 59" N  16° 23' 59" E  View metadata report for BODC series reference number 891778
8917911994-09-09 19:30 69° 45' 42" N  16° 34' 59" E  View metadata report for BODC series reference number 891791
8918091994-09-09 20:00 69° 45' 0" N  16° 40' 59" E  View metadata report for BODC series reference number 891809
8918101994-09-09 20:30 69° 44' 30" N  16° 43' 59" E  View metadata report for BODC series reference number 891810
8918221994-09-09 21:00 69° 44' 23" N  16° 46' 59" E  View metadata report for BODC series reference number 891822
8918341994-09-09 22:00 69° 45' 0" N  16° 51' 0" E  View metadata report for BODC series reference number 891834
8918461994-09-09 22:30 69° 45' 17" N  16° 56' 59" E  View metadata report for BODC series reference number 891846
8918581994-09-09 23:00 69° 45' 17" N  17° 7' 59" E  View metadata report for BODC series reference number 891858
8918711994-09-10 00:00 69° 44' 30" N  17° 19' 59" E  View metadata report for BODC series reference number 891871
8918831994-09-10 01:00 69° 40' 0" N  17° 31' 0" E  View metadata report for BODC series reference number 891883
8918951994-09-09 14:20 69° 33' 29" N  15° 40' 0" E  View metadata report for BODC series reference number 891895
8919021994-09-09 17:00 69° 31' 59" N  16° 1' 0" E  View metadata report for BODC series reference number 891902
8919141994-09-08 02:00 70° 25' 18" N  17° 1' 29" E  View metadata report for BODC series reference number 891914
8919261994-09-08 07:40 69° 57' 17" N  16° 40' 59" E  View metadata report for BODC series reference number 891926
8919381994-09-08 08:00 69° 57' 0" N  16° 45' 0" E  View metadata report for BODC series reference number 891938
8919511994-09-08 10:30 69° 55' 59" N  16° 51' 0" E  View metadata report for BODC series reference number 891951
8919631994-09-08 11:00 69° 55' 29" N  16° 56' 59" E  View metadata report for BODC series reference number 891963
8919751994-09-08 12:00 69° 53' 35" N  17° 13' 0" E  View metadata report for BODC series reference number 891975
8919871994-09-08 13:00 69° 52' 0" N  17° 30' 0" E  View metadata report for BODC series reference number 891987
8919991994-09-08 14:00 69° 49' 59" N  17° 46' 0" E  View metadata report for BODC series reference number 891999
8920021994-09-08 16:00 69° 47' 59" N  17° 43' 0" E  View metadata report for BODC series reference number 892002
8920141994-09-08 17:00 69° 46' 0" N  17° 40' 0" E  View metadata report for BODC series reference number 892014
8920261994-09-08 20:00 69° 47' 30" N  17° 22' 59" E  View metadata report for BODC series reference number 892026
8920381994-09-08 21:00 69° 49' 59" N  17° 4' 0" E  View metadata report for BODC series reference number 892038
8920511994-09-09 00:00 69° 51' 29" N  16° 46' 59" E  View metadata report for BODC series reference number 892051
8920631994-09-09 01:00 69° 52' 0" N  16° 41' 59" E  View metadata report for BODC series reference number 892063
8920751994-09-09 02:00 69° 52' 30" N  16° 36' 0" E  View metadata report for BODC series reference number 892075
8920871994-09-09 03:00 69° 52' 59" N  16° 33' 0" E  View metadata report for BODC series reference number 892087
8920991994-09-09 04:00 69° 53' 24" N  16° 31' 0" E  View metadata report for BODC series reference number 892099
8921061994-09-09 05:00 69° 54' 18" N  16° 22' 59" E  View metadata report for BODC series reference number 892106
8921181994-09-09 06:00 69° 49' 59" N  16° 0' 0" E  View metadata report for BODC series reference number 892118
8921311994-09-09 11:00 69° 35' 30" N  15° 5' 59" E  View metadata report for BODC series reference number 892131
8921431994-09-09 12:00 69° 34' 41" N  15° 19' 59" E  View metadata report for BODC series reference number 892143
8921551994-09-09 13:00 69° 34' 0" N  15° 34' 0" E  View metadata report for BODC series reference number 892155
8921671994-09-09 14:00 69° 33' 29" N  15° 37' 0" E  View metadata report for BODC series reference number 892167
8921791994-09-09 14:40 69° 33' 24" N  15° 41' 59" E  View metadata report for BODC series reference number 892179
8921801994-09-09 15:00 69° 33' 11" N  15° 43' 59" E  View metadata report for BODC series reference number 892180
8921921994-09-09 15:20 69° 32' 59" N  15° 46' 18" E  View metadata report for BODC series reference number 892192
8922111994-09-09 15:40 69° 32' 35" N  15° 49' 0" E  View metadata report for BODC series reference number 892211
8922231994-09-09 16:00 69° 32' 24" N  15° 55' 0" E  View metadata report for BODC series reference number 892223
8922351994-09-05 19:00 69° 47' 17" N  19° 16' 0" E  View metadata report for BODC series reference number 892235
8922471994-09-05 23:00 70° 19' 59" N  18° 56' 59" E  View metadata report for BODC series reference number 892247
8922591994-09-06 03:00 70° 20' 59" N  18° 34' 59" E  View metadata report for BODC series reference number 892259
8922601994-09-06 04:00 70° 22' 0" N  18° 11' 59" E  View metadata report for BODC series reference number 892260
8922721994-09-06 06:00 70° 22' 59" N  17° 53' 59" E  View metadata report for BODC series reference number 892272
8922841994-09-06 07:00 70° 23' 30" N  17° 36' 0" E  View metadata report for BODC series reference number 892284
8922961994-09-06 08:00 70° 24' 29" N  17° 18' 0" E  View metadata report for BODC series reference number 892296
8923031994-09-06 12:00 70° 24' 42" N  17° 13' 0" E  View metadata report for BODC series reference number 892303
8923151994-09-06 15:00 70° 24' 54" N  17° 10' 0" E  View metadata report for BODC series reference number 892315
8923271994-09-06 19:00 70° 26' 6" N  17° 5' 17" E  View metadata report for BODC series reference number 892327
8923391994-09-06 20:00 70° 26' 30" N  17° 4' 0" E  View metadata report for BODC series reference number 892339
8923401994-09-06 22:00 70° 28' 23" N  17° 2' 12" E  View metadata report for BODC series reference number 892340
8923521994-09-07 00:00 70° 30' 0" N  17° 4' 0" E  View metadata report for BODC series reference number 892352
8923641994-09-07 02:00 70° 31' 23" N  17° 7' 47" E  View metadata report for BODC series reference number 892364
8923761994-09-07 04:00 70° 31' 30" N  17° 10' 5" E  View metadata report for BODC series reference number 892376
8923881994-09-07 06:00 70° 31' 48" N  17° 9' 47" E  View metadata report for BODC series reference number 892388
8924071994-09-07 08:00 70° 31' 59" N  17° 5' 12" E  View metadata report for BODC series reference number 892407
8924191994-09-07 10:00 70° 33' 29" N  17° 4' 36" E  View metadata report for BODC series reference number 892419
8924201994-09-07 12:00 70° 34' 23" N  17° 6' 18" E  View metadata report for BODC series reference number 892420
8924321994-09-07 14:00 70° 35' 35" N  17° 10' 18" E  View metadata report for BODC series reference number 892432
8924441994-09-07 21:00 70° 24' 54" N  17° 10' 0" E  View metadata report for BODC series reference number 892444
8924561994-09-07 23:00 70° 24' 42" N  17° 13' 0" E  View metadata report for BODC series reference number 892456
8924681994-09-08 01:00 70° 24' 47" N  17° 11' 17" E  View metadata report for BODC series reference number 892468
8924811994-09-08 01:25 70° 25' 0" N  17° 6' 0" E  View metadata report for BODC series reference number 892481
8924931994-09-08 03:00 70° 26' 35" N  16° 31' 0" E  View metadata report for BODC series reference number 892493
8925001994-09-08 04:00 70° 27' 29" N  16° 0' 0" E  View metadata report for BODC series reference number 892500
8925121994-09-08 07:00 69° 58' 0" N  16° 33' 0" E  View metadata report for BODC series reference number 892512
8925241994-09-08 07:20 69° 57' 29" N  16° 37' 59" E  View metadata report for BODC series reference number 892524
Discrete samples 
13  CTD frame plus rosette samplerTerrestrial detritus in the water column suspended particulate material
Particulate total and organic carbon concentrations in the water column
Particulate total and organic nitrogen concentrations in the water column
Zooplankton taxonomy-related abundance per unit volume of the water column
Density of the water column
Biological detritus in the water column suspended particulate material
Chlorophyll pigment concentrations in water bodies
Phytoplankton taxonomic abundance in water bodies
Silicate concentration parameters in the water column
Salinity of the water column
Macroalgae generic abundance in water bodies
Zooplankton non taxonomy-related abundance per unit volume of the water column
Nitrate concentration parameters in the water column
Temperature of the water column
Phaeopigment concentrations in the water column
Phytoplankton generic abundance in water bodies
Microzooplankton taxonomic abundance in water bodies
Phosphate concentration parameters in the water column
1  Drifting rig with sediment trapsSedimentation flux of carbon, nitrogen or organic matter in the water column
Sedimentation flux of identified biota expressed as carbon in the water column
Sedimentation flux of pigments in the water column
Sedimentation flux of identified biota in the water column